Nord Fuji — H8WX — position and weather

sailwx.info

Track history (hours):
 
Tides and Currents Weather Stations Pressure Air Temp Water Temp Dewpoint Dewpoint Depression Visibility Wind Speed Wind Dir Waves Ship Positions

Nord Fuji

Last reported at 2018-Apr-10 17:06 UTC. Time now 2018-Apr-20 01:29 UTC.
Position N 09°11' W 079°52'.
Warning: this ship's position is 9 days out of date.

Length 190 m; draft 10.1 m.

Type: Ship. MMSI: 357252000.

Date/timePositionNaut miles runAvg speedWind from/ knotsBaromVisibWave heightAir tempDewpointWater temp
2018-Apr-10 17:06N 09°11' W 079°52'1 8.4
2018-Apr-10 17:00N 09°11' W 079°53'4 6.7
2018-Apr-10 16:25N 09°13' W 079°56'0 0.3
2018-Apr-10 16:00N 09°13' W 079°56'0 0.0
2018-Apr-10 15:30N 09°13' W 079°56'0 0.0
2018-Apr-10 14:57N 09°13' W 079°56'0 0.1
2018-Apr-10 14:27N 09°13' W 079°56'0 0.1
2018-Apr-10 14:00N 09°13' W 079°56'0 0.1
2018-Apr-10 13:30N 09°13' W 079°56'0 0.0
2018-Apr-10 13:00N 09°13' W 079°56'0 0.0
2018-Apr-10 12:30N 09°13' W 079°56'0 0.0
2018-Apr-10 11:54N 09°13' W 079°56'0 0.0
2018-Apr-10 11:24N 09°13' W 079°56'0 0.0
2018-Apr-10 11:00N 09°13' W 079°56'0 0.0
2018-Apr-10 10:21N 09°13' W 079°56'0 0.1
2018-Apr-10 09:52N 09°13' W 079°56'1 2.3
2018-Apr-10 09:30N 09°14' W 079°55'2 4.7
2018-Apr-10 09:00N 09°16' W 079°55'0 0.7
2018-Apr-10 08:30N 09°16' W 079°55'0 0.4
2018-Apr-10 08:00N 09°17' W 079°55'0 0.6
2018-Apr-10 07:30N 09°17' W 079°55'1 2.6
2018-Apr-10 07:00N 09°18' W 079°55'4 8.0
2018-Apr-10 06:30N 09°22' W 079°55'3 5.3
2018-Apr-10 05:58N 09°25' W 079°55'3 6.1
2018-Apr-10 05:30N 09°28' W 079°55'2 4.7
2018-Apr-10 05:00N 09°30' W 079°56'1 1.5
2018-Apr-10 04:20N 09°30' W 079°57'0 0.1
2018-Apr-10 03:41N 09°30' W 079°57'0 0.0
2018-Apr-10 03:29N 09°30' W 079°57'0 0.0
2018-Apr-10 02:53N 09°30' W 079°57'0 0.0
2018-Apr-10 02:29N 09°30' W 079°57'0 0.0
2018-Apr-10 01:59N 09°30' W 079°57'0 0.0
2018-Apr-10 01:29N 09°30' W 079°57'0 0.0
2018-Apr-10 00:59N 09°30' W 079°57'0 0.1
2018-Apr-10 00:29N 09°30' W 079°57'0 0.0
2018-Apr-09 23:59N 09°30' W 079°57'0 0.0
2018-Apr-09 23:29N 09°30' W 079°57'0 0.0
2018-Apr-09 22:59N 09°30' W 079°57'0 0.0
2018-Apr-09 22:11N 09°30' W 079°57'0 0.0
2018-Apr-09 21:59N 09°30' W 079°57'0 0.0
2018-Apr-09 21:26N 09°30' W 079°57'0 0.0
2018-Apr-09 20:59N 09°30' W 079°57'0 0.0
2018-Apr-09 20:29N 09°30' W 079°57'0 0.0
2018-Apr-09 19:59N 09°30' W 079°57'0 0.0
2018-Apr-09 19:29N 09°30' W 079°57'0 0.0
2018-Apr-09 18:50N 09°30' W 079°57'0 0.0
2018-Apr-09 18:29N 09°30' W 079°57'0 0.0
2018-Apr-09 17:59N 09°30' W 079°57'0 0.0
2018-Apr-09 17:20N 09°30' W 079°57'0 0.0
2018-Apr-09 16:59N 09°30' W 079°57'0 0.0
2018-Apr-09 16:23N 09°30' W 079°57'0 0.0
2018-Apr-09 15:59N 09°30' W 079°57'0 0.0
2018-Apr-09 15:29N 09°30' W 079°57'0 0.0
2018-Apr-09 14:59N 09°30' W 079°57'0 0.0
2018-Apr-09 14:29N 09°30' W 079°57'0 0.0
2018-Apr-09 13:59N 09°30' W 079°57'0 0.0
2018-Apr-09 13:29N 09°30' W 079°57'0 0.0
2018-Apr-09 12:59N 09°30' W 079°57'0 0.0
2018-Apr-09 12:26N 09°30' W 079°57'0 0.0
2018-Apr-09 11:59N 09°30' W 079°57'0 0.0
2018-Apr-09 11:29N 09°30' W 079°57'0 0.0
2018-Apr-09 10:59N 09°30' W 079°57'0 0.0
2018-Apr-09 10:29N 09°30' W 079°57'0 0.0
2018-Apr-09 09:59N 09°30' W 079°57'0 0.0
2018-Apr-09 09:29N 09°30' W 079°57'0 0.0
2018-Apr-09 08:56N 09°30' W 079°57'0 0.0
2018-Apr-09 08:26N 09°30' W 079°57'0 0.0
2018-Apr-09 07:50N 09°30' W 079°57'0 0.0
2018-Apr-09 07:29N 09°30' W 079°57'0 0.0
2018-Apr-09 06:56N 09°30' W 079°57'0 0.0
2018-Apr-09 06:29N 09°30' W 079°57'0 0.0
2018-Apr-09 05:59N 09°30' W 079°57'0 0.0
2018-Apr-09 05:29N 09°30' W 079°57'0 0.0
2018-Apr-09 04:59N 09°30' W 079°57'0 0.0
2018-Apr-09 04:23N 09°30' W 079°57'0 0.0
2018-Apr-09 03:59N 09°30' W 079°57'0 0.0
2018-Apr-09 03:29N 09°30' W 079°57'0 0.0
2018-Apr-09 02:56N 09°30' W 079°57'0 0.0
2018-Apr-09 02:29N 09°30' W 079°57'0 0.0
2018-Apr-09 01:58N 09°30' W 079°57'0 0.0
2018-Apr-09 01:29N 09°30' W 079°57'0 0.0
2018-Apr-09 00:59N 09°30' W 079°57'0 0.0
2018-Apr-09 00:29N 09°30' W 079°57'0 0.0
2018-Apr-08 23:56N 09°30' W 079°57'0 0.0
2018-Apr-08 23:14N 09°30' W 079°57'0 0.0
2018-Apr-08 22:59N 09°30' W 079°57'0 0.0
2018-Apr-08 22:26N 09°30' W 079°57'0 0.0
2018-Apr-08 21:59N 09°30' W 079°57'0 0.0
2018-Apr-08 21:26N 09°30' W 079°57'0 0.0
2018-Apr-08 20:59N 09°30' W 079°57'0 0.0
2018-Apr-08 20:29N 09°30' W 079°57'0 0.5
2018-Apr-08 20:00N 09°30' W 079°57'1 2.5
2018-Apr-08 19:31N 09°31' W 079°55'4 7.8
2018-Apr-08 18:58N 09°34' W 079°52'  
2018-Apr-01 11:04N 30°07' W 090°59'  
Track history (hours):
 
Tides and Currents Weather Stations Pressure Air Temp Water Temp Dewpoint Dewpoint Depression Visibility Wind Speed Wind Dir Waves Ship Positions

Nord Fuji

Last reported at 2018-Apr-10 17:06 UTC. Time now 2018-Apr-20 01:29 UTC.
Position N 09°11' W 079°52'.
Warning: this ship's position is 9 days out of date.

Length 190 m; draft 10.1 m.

Type: Ship. MMSI: 357252000.

Date/timePositionNaut miles runAvg speedWind from/ knotsBaromVisibWave heightAir tempDewpointWater temp
2018-Apr-10 17:06N 09°11' W 079°52'1 8.4
2018-Apr-10 17:00N 09°11' W 079°53'4 6.7
2018-Apr-10 16:25N 09°13' W 079°56'0 0.3
2018-Apr-10 16:00N 09°13' W 079°56'0 0.0
2018-Apr-10 15:30N 09°13' W 079°56'0 0.0
2018-Apr-10 14:57N 09°13' W 079°56'0 0.1
2018-Apr-10 14:27N 09°13' W 079°56'0 0.1
2018-Apr-10 14:00N 09°13' W 079°56'0 0.1
2018-Apr-10 13:30N 09°13' W 079°56'0 0.0
2018-Apr-10 13:00N 09°13' W 079°56'0 0.0
2018-Apr-10 12:30N 09°13' W 079°56'0 0.0
2018-Apr-10 11:54N 09°13' W 079°56'0 0.0
2018-Apr-10 11:24N 09°13' W 079°56'0 0.0
2018-Apr-10 11:00N 09°13' W 079°56'0 0.0
2018-Apr-10 10:21N 09°13' W 079°56'0 0.1
2018-Apr-10 09:52N 09°13' W 079°56'1 2.3
2018-Apr-10 09:30N 09°14' W 079°55'2 4.7
2018-Apr-10 09:00N 09°16' W 079°55'0 0.7
2018-Apr-10 08:30N 09°16' W 079°55'0 0.4
2018-Apr-10 08:00N 09°17' W 079°55'0 0.6
2018-Apr-10 07:30N 09°17' W 079°55'1 2.6
2018-Apr-10 07:00N 09°18' W 079°55'4 8.0
2018-Apr-10 06:30N 09°22' W 079°55'3 5.3
2018-Apr-10 05:58N 09°25' W 079°55'3 6.1
2018-Apr-10 05:30N 09°28' W 079°55'2 4.7
2018-Apr-10 05:00N 09°30' W 079°56'1 1.5
2018-Apr-10 04:20N 09°30' W 079°57'0 0.1
2018-Apr-10 03:41N 09°30' W 079°57'0 0.0
2018-Apr-10 03:29N 09°30' W 079°57'0 0.0
2018-Apr-10 02:53N 09°30' W 079°57'0 0.0
2018-Apr-10 02:29N 09°30' W 079°57'0 0.0
2018-Apr-10 01:59N 09°30' W 079°57'0 0.0
2018-Apr-10 01:29N 09°30' W 079°57'0 0.0
2018-Apr-10 00:59N 09°30' W 079°57'0 0.1
2018-Apr-10 00:29N 09°30' W 079°57'0 0.0
2018-Apr-09 23:59N 09°30' W 079°57'0 0.0
2018-Apr-09 23:29N 09°30' W 079°57'0 0.0
2018-Apr-09 22:59N 09°30' W 079°57'0 0.0
2018-Apr-09 22:11N 09°30' W 079°57'0 0.0
2018-Apr-09 21:59N 09°30' W 079°57'0 0.0
2018-Apr-09 21:26N 09°30' W 079°57'0 0.0
2018-Apr-09 20:59N 09°30' W 079°57'0 0.0
2018-Apr-09 20:29N 09°30' W 079°57'0 0.0
2018-Apr-09 19:59N 09°30' W 079°57'0 0.0
2018-Apr-09 19:29N 09°30' W 079°57'0 0.0
2018-Apr-09 18:50N 09°30' W 079°57'0 0.0
2018-Apr-09 18:29N 09°30' W 079°57'0 0.0
2018-Apr-09 17:59N 09°30' W 079°57'0 0.0
2018-Apr-09 17:20N 09°30' W 079°57'0 0.0
2018-Apr-09 16:59N 09°30' W 079°57'0 0.0
2018-Apr-09 16:23N 09°30' W 079°57'0 0.0
2018-Apr-09 15:59N 09°30' W 079°57'0 0.0
2018-Apr-09 15:29N 09°30' W 079°57'0 0.0
2018-Apr-09 14:59N 09°30' W 079°57'0 0.0
2018-Apr-09 14:29N 09°30' W 079°57'0 0.0
2018-Apr-09 13:59N 09°30' W 079°57'0 0.0
2018-Apr-09 13:29N 09°30' W 079°57'0 0.0
2018-Apr-09 12:59N 09°30' W 079°57'0 0.0
2018-Apr-09 12:26N 09°30' W 079°57'0 0.0
2018-Apr-09 11:59N 09°30' W 079°57'0 0.0
2018-Apr-09 11:29N 09°30' W 079°57'0 0.0
2018-Apr-09 10:59N 09°30' W 079°57'0 0.0
2018-Apr-09 10:29N 09°30' W 079°57'0 0.0
2018-Apr-09 09:59N 09°30' W 079°57'0 0.0
2018-Apr-09 09:29N 09°30' W 079°57'0 0.0
2018-Apr-09 08:56N 09°30' W 079°57'0 0.0
2018-Apr-09 08:26N 09°30' W 079°57'0 0.0
2018-Apr-09 07:50N 09°30' W 079°57'0 0.0
2018-Apr-09 07:29N 09°30' W 079°57'0 0.0
2018-Apr-09 06:56N 09°30' W 079°57'0 0.0
2018-Apr-09 06:29N 09°30' W 079°57'0 0.0
2018-Apr-09 05:59N 09°30' W 079°57'0 0.0
2018-Apr-09 05:29N 09°30' W 079°57'0 0.0
2018-Apr-09 04:59N 09°30' W 079°57'0 0.0
2018-Apr-09 04:23N 09°30' W 079°57'0 0.0
2018-Apr-09 03:59N 09°30' W 079°57'0 0.0
2018-Apr-09 03:29N 09°30' W 079°57'0 0.0
2018-Apr-09 02:56N 09°30' W 079°57'0 0.0
2018-Apr-09 02:29N 09°30' W 079°57'0 0.0
2018-Apr-09 01:58N 09°30' W 079°57'0 0.0
2018-Apr-09 01:29N 09°30' W 079°57'0 0.0
2018-Apr-09 00:59N 09°30' W 079°57'0 0.0
2018-Apr-09 00:29N 09°30' W 079°57'0 0.0
2018-Apr-08 23:56N 09°30' W 079°57'0 0.0
2018-Apr-08 23:14N 09°30' W 079°57'0 0.0
2018-Apr-08 22:59N 09°30' W 079°57'0 0.0
2018-Apr-08 22:26N 09°30' W 079°57'0 0.0
2018-Apr-08 21:59N 09°30' W 079°57'0 0.0
2018-Apr-08 21:26N 09°30' W 079°57'0 0.0
2018-Apr-08 20:59N 09°30' W 079°57'0 0.0
2018-Apr-08 20:29N 09°30' W 079°57'0 0.5
2018-Apr-08 20:00N 09°30' W 079°57'1 2.5
2018-Apr-08 19:31N 09°31' W 079°55'4 7.8
2018-Apr-08 18:58N 09°34' W 079°52'  
2018-Apr-01 11:04N 30°07' W 090°59'  

Dump ship's entire track history